Time,TemperatureF,DewpointF,PressureIn,WindDirection,WindDirectionDegrees,WindSpeedMPH,WindSpeedGustMPH,Humidity,HourlyPrecipIn,Conditions,Clouds,dailyrainin,SoftwareType,DateUTC
2013-05-10 00:00:00,59.0,59.0,30.09,East,86,0.0,0.0,100,0.00,,,0.00,Wunderground v.1.15,2013-05-10 04:00:00,
2013-05-10 00:05:00,59.0,59.0,30.09,East,86,0.0,0.0,100,0.00,,,0.00,Wunderground v.1.15,2013-05-10 04:05:00,
2013-05-10 00:15:00,59.0,59.0,30.09,East,86,0.0,0.0,100,0.00,,,0.00,Wunderground v.1.15,2013-05-10 04:15:00,
2013-05-10 00:20:00,58.9,58.9,30.09,East,86,0.0,0.0,100,0.00,,,0.00,Wunderground v.1.15,2013-05-10 04:20:00,
2013-05-10 00:25:00,58.6,58.6,30.09,East,86,0.0,0.0,100,0.00,,,0.00,Wunderground v.1.15,2013-05-10 04:25:00,
2013-05-10 00:30:00,58.5,58.5,30.09,East,86,0.0,0.0,100,0.00,,,0.00,Wunderground v.1.15,2013-05-10 04:30:00,
2013-05-10 00:35:00,58.4,58.4,30.09,East,86,0.0,0.0,100,0.00,,,0.00,Wunderground v.1.15,2013-05-10 04:35:00,
2013-05-10 00:45:00,58.1,58.1,30.09,East,86,0.0,0.0,100,0.00,,,0.00,Wunderground v.1.15,2013-05-10 04:45:00,
2013-05-10 00:50:00,57.9,57.9,30.09,East,86,0.0,0.0,100,0.00,,,0.00,Wunderground v.1.15,2013-05-10 04:50:00,
2013-05-10 00:55:00,57.8,57.8,30.09,East,86,0.0,0.0,100,0.00,,,0.00,Wunderground v.1.15,2013-05-10 04:55:00,
2013-05-10 01:00:00,57.7,57.7,30.09,East,86,0.0,0.0,100,0.00,,,0.00,Wunderground v.1.15,2013-05-10 05:00:00,
2013-05-10 01:10:00,57.5,57.5,30.09,East,86,0.0,0.0,100,0.00,,,0.00,Wunderground v.1.15,2013-05-10 05:10:00,
2013-05-10 01:19:00,57.2,57.2,30.08,East,86,0.0,0.0,100,0.00,,,0.00,Wunderground v.1.15,2013-05-10 05:19:00,
2013-05-10 01:25:00,57.1,57.1,30.08,East,86,0.0,0.0,100,0.00,,,0.00,Wunderground v.1.15,2013-05-10 05:25:00,
2013-05-10 01:30:00,57.1,57.1,30.08,East,86,0.0,0.0,100,0.00,,,0.00,Wunderground v.1.15,2013-05-10 05:30:00,
2013-05-10 01:40:00,56.9,56.9,30.08,East,86,0.0,0.0,100,0.00,,,0.00,Wunderground v.1.15,2013-05-10 05:40:00,
2013-05-10 01:50:00,56.8,56.8,30.08,East,86,0.0,0.0,100,0.00,,,0.00,Wunderground v.1.15,2013-05-10 05:50:00,
2013-05-10 01:55:00,56.7,56.7,30.08,East,86,0.0,0.0,100,0.00,,,0.00,Wunderground v.1.15,2013-05-10 05:55:00,
2013-05-10 02:05:00,56.5,56.5,30.07,East,86,0.0,0.0,100,0.00,,,0.00,Wunderground v.1.15,2013-05-10 06:05:00,
2013-05-10 02:10:00,56.5,56.5,30.07,East,86,0.0,0.0,100,0.00,,,0.00,Wunderground v.1.15,2013-05-10 06:10:00,
2013-05-10 02:20:00,56.3,56.3,30.07,East,86,0.0,0.0,100,0.00,,,0.00,Wunderground v.1.15,2013-05-10 06:20:00,
2013-05-10 02:29:00,56.1,56.1,30.06,East,86,0.0,0.0,100,0.00,,,0.00,Wunderground v.1.15,2013-05-10 06:29:00,
2013-05-10 02:35:00,56.0,56.0,30.06,East,86,0.0,0.0,100,0.00,,,0.00,Wunderground v.1.15,2013-05-10 06:35:00,
2013-05-10 02:45:00,55.8,55.8,30.06,East,86,0.0,0.0,100,0.00,,,0.00,Wunderground v.1.15,2013-05-10 06:45:00,
2013-05-10 02:50:00,55.7,55.7,30.06,East,86,0.0,0.0,100,0.00,,,0.00,Wunderground v.1.15,2013-05-10 06:50:00,
2013-05-10 02:59:00,55.6,55.6,30.05,East,86,0.0,0.0,100,0.00,,,0.00,Wunderground v.1.15,2013-05-10 06:59:00,
2013-05-10 03:05:00,55.5,55.5,30.05,East,86,0.0,0.0,100,0.00,,,0.00,Wunderground v.1.15,2013-05-10 07:05:00,
2013-05-10 03:10:00,55.4,55.4,30.05,East,86,0.0,0.0,100,0.00,,,0.00,Wunderground v.1.15,2013-05-10 07:10:00,
2013-05-10 03:20:00,55.3,55.3,30.06,East,86,0.0,0.0,100,0.00,,,0.00,Wunderground v.1.15,2013-05-10 07:20:00,
2013-05-10 03:30:00,55.1,55.1,30.05,East,86,0.0,0.0,100,0.00,,,0.00,Wunderground v.1.15,2013-05-10 07:30:00,
2013-05-10 03:39:00,55.0,55.0,30.05,East,86,0.0,0.0,100,0.00,,,0.00,Wunderground v.1.15,2013-05-10 07:39:00,
2013-05-10 03:45:00,54.9,54.9,30.04,East,86,0.0,0.0,100,0.00,,,0.00,Wunderground v.1.15,2013-05-10 07:45:00,
2013-05-10 03:50:00,54.8,54.8,30.04,East,86,0.0,0.0,100,0.00,,,0.00,Wunderground v.1.15,2013-05-10 07:50:00,
2013-05-10 04:00:00,54.7,54.7,30.04,East,86,0.0,0.0,100,0.00,,,0.00,Wunderground v.1.15,2013-05-10 08:00:00,
2013-05-10 04:09:00,54.5,54.5,30.04,East,86,0.0,0.0,100,0.00,,,0.00,Wunderground v.1.15,2013-05-10 08:09:00,
2013-05-10 04:15:00,54.4,54.4,30.03,East,86,0.0,0.0,100,0.00,,,0.00,Wunderground v.1.15,2013-05-10 08:15:00,
2013-05-10 04:20:00,54.3,54.3,30.03,East,86,0.0,0.0,100,0.00,,,0.00,Wunderground v.1.15,2013-05-10 08:20:00,
2013-05-10 04:30:00,54.1,54.1,30.03,East,86,0.0,0.0,100,0.00,,,0.00,Wunderground v.1.15,2013-05-10 08:30:00,
2013-05-10 04:39:00,54.0,54.0,30.03,East,86,0.0,0.0,100,0.00,,,0.00,Wunderground v.1.15,2013-05-10 08:39:00,
2013-05-10 04:45:00,53.9,53.9,30.03,East,86,0.0,0.0,100,0.00,,,0.00,Wunderground v.1.15,2013-05-10 08:45:00,
2013-05-10 04:50:00,53.8,53.8,30.03,East,86,0.0,0.0,100,0.00,,,0.00,Wunderground v.1.15,2013-05-10 08:50:00,
2013-05-10 05:00:00,53.7,53.7,30.03,East,86,0.0,0.0,100,0.00,,,0.00,Wunderground v.1.15,2013-05-10 09:00:00,
2013-05-10 05:10:00,53.6,53.6,30.03,East,86,0.0,0.0,100,0.00,,,0.00,Wunderground v.1.15,2013-05-10 09:10:00,
2013-05-10 05:15:00,53.5,53.5,30.03,East,86,0.0,0.0,100,0.00,,,0.00,Wunderground v.1.15,2013-05-10 09:15:00,
2013-05-10 05:20:00,53.4,53.4,30.03,East,86,0.0,0.0,100,0.00,,,0.00,Wunderground v.1.15,2013-05-10 09:20:00,
2013-05-10 05:30:00,53.3,53.3,30.03,East,86,0.0,0.0,100,0.00,,,0.00,Wunderground v.1.15,2013-05-10 09:30:00,
2013-05-10 05:40:00,53.2,53.2,30.03,East,86,0.0,0.0,100,0.00,,,0.00,Wunderground v.1.15,2013-05-10 09:40:00,
2013-05-10 05:49:00,53.0,53.0,30.03,East,86,0.0,0.0,100,0.00,,,0.00,Wunderground v.1.15,2013-05-10 09:49:00,
2013-05-10 05:55:00,52.9,52.9,30.03,East,86,0.0,0.0,100,0.00,,,0.00,Wunderground v.1.15,2013-05-10 09:55:00,
2013-05-10 06:00:00,52.8,52.8,30.03,East,86,0.0,0.0,100,0.00,,,0.00,Wunderground v.1.15,2013-05-10 10:00:00,
2013-05-10 06:10:00,52.6,52.6,30.03,East,86,0.0,0.0,100,0.00,,,0.00,Wunderground v.1.15,2013-05-10 10:10:00,
2013-05-10 06:19:00,52.4,52.4,30.02,East,86,0.0,0.0,100,0.00,,,0.00,Wunderground v.1.15,2013-05-10 10:19:00,
2013-05-10 06:25:00,52.4,52.4,30.02,East,86,0.0,0.0,100,0.00,,,0.00,Wunderground v.1.15,2013-05-10 10:25:00,
2013-05-10 06:30:00,52.3,52.3,30.03,East,86,0.0,0.0,100,0.00,,,0.00,Wunderground v.1.15,2013-05-10 10:30:00,
2013-05-10 06:40:00,52.2,52.2,30.03,East,86,0.0,0.0,100,0.00,,,0.00,Wunderground v.1.15,2013-05-10 10:40:00,
2013-05-10 06:49:00,52.1,52.1,30.04,East,86,0.0,0.0,100,0.00,,,0.00,Wunderground v.1.15,2013-05-10 10:49:00,
2013-05-10 06:55:00,52.1,52.1,30.04,East,86,0.0,0.0,100,0.00,,,0.00,Wunderground v.1.15,2013-05-10 10:55:00,
2013-05-10 07:00:00,52.1,52.1,30.04,East,86,0.0,0.0,100,0.00,,,0.00,Wunderground v.1.15,2013-05-10 11:00:00,
2013-05-10 07:10:00,52.1,52.1,30.04,SE,134,0.0,0.0,100,0.00,,,0.00,Wunderground v.1.15,2013-05-10 11:10:00,
2013-05-10 07:19:00,52.3,52.3,30.05,SE,134,0.0,0.0,100,0.00,,,0.00,Wunderground v.1.15,2013-05-10 11:19:00,
2013-05-10 07:25:00,52.4,52.4,30.05,SE,134,0.0,0.0,100,0.00,,,0.00,Wunderground v.1.15,2013-05-10 11:25:00,
2013-05-10 07:30:00,52.8,52.8,30.05,SE,134,0.0,0.0,100,0.00,,,0.00,Wunderground v.1.15,2013-05-10 11:30:00,
2013-05-10 07:40:00,53.3,53.3,30.05,SE,134,0.0,0.0,100,0.00,,,0.00,Wunderground v.1.15,2013-05-10 11:40:00,
2013-05-10 07:50:00,53.9,53.9,30.05,SSW,203,0.0,0.0,100,0.00,,,0.00,Wunderground v.1.15,2013-05-10 11:50:00,
2013-05-10 07:55:00,54.1,54.1,30.05,SSW,203,0.0,0.0,100,0.00,,,0.00,Wunderground v.1.15,2013-05-10 11:55:00,
2013-05-10 08:00:00,54.3,54.3,30.06,SSW,203,0.0,0.0,100,0.00,,,0.00,Wunderground v.1.15,2013-05-10 12:00:00,
2013-05-10 08:10:00,54.8,54.8,30.06,SSW,203,0.0,0.0,100,0.00,,,0.00,Wunderground v.1.15,2013-05-10 12:10:00,
2013-05-10 08:20:00,55.5,55.5,30.07,SSW,203,0.0,0.0,100,0.00,,,0.00,Wunderground v.1.15,2013-05-10 12:20:00,
2013-05-10 08:29:00,56.0,56.0,30.07,SSW,203,0.0,0.0,100,0.00,,,0.00,Wunderground v.1.15,2013-05-10 12:29:00,
2013-05-10 08:35:00,56.3,56.3,30.07,SSW,203,0.0,0.0,100,0.00,,,0.00,Wunderground v.1.15,2013-05-10 12:35:00,
2013-05-10 08:40:00,56.6,56.6,30.07,SSW,203,0.0,0.0,100,0.00,,,0.00,Wunderground v.1.15,2013-05-10 12:40:00,
2013-05-10 08:50:00,57.1,57.1,30.07,SSW,203,0.0,0.0,100,0.00,,,0.00,Wunderground v.1.15,2013-05-10 12:50:00,
2013-05-10 08:59:00,57.8,57.8,30.07,SSW,203,0.0,0.0,100,0.00,,,0.00,Wunderground v.1.15,2013-05-10 12:59:00,
2013-05-10 09:05:00,58.1,58.1,30.07,SSW,203,0.0,0.0,100,0.00,,,0.00,Wunderground v.1.15,2013-05-10 13:05:00,
2013-05-10 09:15:00,58.7,58.7,30.07,SSW,203,0.0,0.0,100,0.00,,,0.00,Wunderground v.1.15,2013-05-10 13:15:00,
2013-05-10 09:20:00,59.0,59.0,30.07,SSW,203,0.0,0.0,100,0.00,,,0.00,Wunderground v.1.15,2013-05-10 13:20:00,
2013-05-10 09:29:00,59.8,59.8,30.07,SSW,203,0.0,0.0,100,0.00,,,0.00,Wunderground v.1.15,2013-05-10 13:29:00,
2013-05-10 09:35:00,60.3,60.3,30.07,SSW,203,0.0,0.0,100,0.00,,,0.00,Wunderground v.1.15,2013-05-10 13:35:00,
2013-05-10 09:40:00,60.6,60.6,30.07,SSW,203,0.0,0.0,100,0.00,,,0.00,Wunderground v.1.15,2013-05-10 13:40:00,
2013-05-10 09:50:00,61.7,61.7,30.07,SSW,203,0.0,0.0,100,0.00,,,0.00,Wunderground v.1.15,2013-05-10 13:50:00,
2013-05-10 09:59:00,62.9,62.9,30.07,SSW,203,0.0,0.0,100,0.00,,,0.00,Wunderground v.1.15,2013-05-10 13:59:00,
2013-05-10 10:09:00,64.1,64.1,30.07,SSW,203,0.0,0.0,100,0.00,,,0.00,Wunderground v.1.15,2013-05-10 14:09:00,
2013-05-10 10:15:00,64.7,64.4,30.07,SSW,203,0.0,0.0,99,0.00,,,0.00,Wunderground v.1.15,2013-05-10 14:15:00,
2013-05-10 10:20:00,65.6,64.7,30.07,South,183,0.0,0.0,97,0.00,,,0.00,Wunderground v.1.15,2013-05-10 14:20:00,
2013-05-10 10:30:00,67.2,65.4,30.08,South,173,0.0,0.0,94,0.00,,,0.00,Wunderground v.1.15,2013-05-10 14:30:00,
2013-05-10 10:35:00,68.0,65.6,30.08,SSE,161,0.0,0.0,92,0.00,,,0.00,Wunderground v.1.15,2013-05-10 14:35:00,
2013-05-10 10:40:00,68.5,64.5,30.08,South,179,0.0,0.0,87,0.00,,,0.00,Wunderground v.1.15,2013-05-10 14:40:00,
2013-05-10 10:50:00,69.0,64.3,30.08,South,173,0.0,0.0,85,0.00,,,0.00,Wunderground v.1.15,2013-05-10 14:50:00,
2013-05-10 11:00:00,69.3,63.6,30.08,South,182,0.0,0.0,82,0.00,,,0.00,Wunderground v.1.15,2013-05-10 15:00:00,
2013-05-10 11:10:00,69.6,63.2,30.08,South,178,0.0,0.0,80,0.00,,,0.00,Wunderground v.1.15,2013-05-10 15:10:00,
2013-05-10 11:20:00,70.4,64.3,30.09,NNE,31,0.0,0.0,81,0.00,,,0.00,Wunderground v.1.15,2013-05-10 15:20:00,
2013-05-10 11:30:00,71.0,64.9,30.08,South,175,0.0,0.0,81,0.00,,,0.00,Wunderground v.1.15,2013-05-10 15:30:00,
2013-05-10 11:39:00,71.5,65.0,30.08,SSE,165,0.0,0.0,80,0.00,,,0.00,Wunderground v.1.15,2013-05-10 15:39:00,
2013-05-10 11:45:00,71.7,64.8,30.09,SSE,165,0.0,0.0,79,0.00,,,0.00,Wunderground v.1.15,2013-05-10 15:45:00,
2013-05-10 11:55:00,72.0,65.5,30.09,SSE,155,0.0,0.0,80,0.00,,,0.00,Wunderground v.1.15,2013-05-10 15:55:00,
2013-05-10 12:00:00,72.2,66.0,30.08,SSE,155,0.0,0.0,81,0.00,,,0.00,Wunderground v.1.15,2013-05-10 16:00:00,
2013-05-10 12:10:00,72.6,65.0,30.08,SSE,155,0.0,0.0,77,0.00,,,0.00,Wunderground v.1.15,2013-05-10 16:10:00,
2013-05-10 12:19:00,73.1,65.5,30.08,SSE,155,0.0,1.0,77,0.00,,,0.00,Wunderground v.1.15,2013-05-10 16:19:00,
2013-05-10 12:25:00,73.4,65.4,30.08,SSE,155,0.0,1.0,76,0.00,,,0.00,Wunderground v.1.15,2013-05-10 16:25:00,
2013-05-10 12:35:00,73.8,65.4,30.08,SSE,155,0.0,2.0,75,0.00,,,0.00,Wunderground v.1.15,2013-05-10 16:35:00,
2013-05-10 12:40:00,73.7,65.3,30.08,South,180,0.0,0.0,75,0.00,,,0.00,Wunderground v.1.15,2013-05-10 16:40:00,
2013-05-10 12:49:00,73.9,65.9,30.07,South,180,0.0,1.0,76,0.00,,,0.00,Wunderground v.1.15,2013-05-10 16:49:00,
2013-05-10 12:55:00,74.0,66.0,30.07,South,169,0.0,1.0,76,0.00,,,0.00,Wunderground v.1.15,2013-05-10 16:55:00,
2013-05-10 13:00:00,74.4,65.6,30.07,SSE,159,0.0,1.0,74,0.00,,,0.00,Wunderground v.1.15,2013-05-10 17:00:00,
2013-05-10 13:10:00,75.0,66.1,30.07,South,181,0.0,0.0,74,0.00,,,0.00,Wunderground v.1.15,2013-05-10 17:10:00,
2013-05-10 13:19:00,75.2,66.7,30.06,SSE,161,0.0,2.0,75,0.00,,,0.00,Wunderground v.1.15,2013-05-10 17:19:00,
2013-05-10 13:25:00,75.2,66.3,30.06,South,180,0.0,2.0,74,0.00,,,0.00,Wunderground v.1.15,2013-05-10 17:25:00,
2013-05-10 13:35:00,74.8,65.6,30.06,South,180,0.0,0.0,73,0.00,,,0.00,Wunderground v.1.15,2013-05-10 17:35:00,
2013-05-10 13:40:00,75.1,66.2,30.06,South,180,0.0,0.0,74,0.00,,,0.00,Wunderground v.1.15,2013-05-10 17:40:00,
2013-05-10 13:50:00,76.2,65.7,30.05,South,180,0.0,0.0,70,0.00,,,0.00,Wunderground v.1.15,2013-05-10 17:50:00,
2013-05-10 13:59:00,76.0,65.5,30.04,South,180,0.0,0.0,70,0.00,,,0.00,Wunderground v.1.15,2013-05-10 17:59:00,
2013-05-10 14:05:00,76.0,66.3,30.04,South,180,0.0,0.0,72,0.00,,,0.00,Wunderground v.1.15,2013-05-10 18:05:00,
2013-05-10 14:10:00,76.0,66.7,30.04,South,180,0.0,0.0,73,0.00,,,0.00,Wunderground v.1.15,2013-05-10 18:10:00,
2013-05-10 14:20:00,76.2,66.9,30.04,South,180,0.0,0.0,73,0.00,,,0.00,Wunderground v.1.15,2013-05-10 18:20:00,
2013-05-10 14:29:00,76.5,65.6,30.03,South,180,0.0,0.0,69,0.00,,,0.00,Wunderground v.1.15,2013-05-10 18:29:00,
2013-05-10 14:35:00,76.5,65.6,30.03,South,180,0.0,0.0,69,0.00,,,0.00,Wunderground v.1.15,2013-05-10 18:35:00,
2013-05-10 14:40:00,76.4,66.7,30.03,South,179,0.0,0.0,72,0.00,,,0.00,Wunderground v.1.15,2013-05-10 18:40:00,
2013-05-10 14:50:00,76.2,64.9,30.03,SSE,167,0.0,0.0,68,0.00,,,0.00,Wunderground v.1.15,2013-05-10 18:50:00,
2013-05-10 15:00:00,76.0,65.1,30.03,ESE,123,0.0,1.0,69,0.00,,,0.00,Wunderground v.1.15,2013-05-10 19:00:00,
2013-05-10 15:05:00,75.9,65.0,30.03,SE,141,0.0,2.0,69,0.00,,,0.00,Wunderground v.1.15,2013-05-10 19:05:00,
2013-05-10 15:10:00,75.6,65.5,30.03,SE,137,0.0,0.0,71,0.00,,,0.00,Wunderground v.1.15,2013-05-10 19:10:00,
2013-05-10 15:20:00,75.0,63.7,30.03,South,175,0.0,1.0,68,0.00,,,0.00,Wunderground v.1.15,2013-05-10 19:20:00,
2013-05-10 15:29:00,75.0,64.5,30.02,South,175,0.0,0.0,70,0.00,,,0.00,Wunderground v.1.15,2013-05-10 19:29:00,
2013-05-10 15:35:00,74.9,64.5,30.02,South,175,0.0,0.0,70,0.00,,,0.00,Wunderground v.1.15,2013-05-10 19:35:00,
2013-05-10 15:40:00,74.8,63.9,30.02,South,179,0.0,0.0,69,0.00,,,0.00,Wunderground v.1.15,2013-05-10 19:40:00,
2013-05-10 15:50:00,74.5,66.1,30.01,South,179,0.0,0.0,75,0.00,,,0.00,Wunderground v.1.15,2013-05-10 19:50:00,
2013-05-10 16:00:00,74.0,63.6,30.00,South,179,0.0,0.0,70,0.00,,,0.00,Wunderground v.1.15,2013-05-10 20:00:00,
2013-05-10 16:09:00,73.6,64.8,30.00,South,179,0.0,0.0,74,0.00,,,0.00,Wunderground v.1.15,2013-05-10 20:09:00,
2013-05-10 16:15:00,73.5,64.3,30.00,South,179,0.0,0.0,73,0.00,,,0.00,Wunderground v.1.15,2013-05-10 20:15:00,
2013-05-10 16:25:00,73.2,64.0,30.00,South,179,0.0,0.0,73,0.00,,,0.00,Wunderground v.1.15,2013-05-10 20:25:00,
2013-05-10 16:30:00,73.1,64.7,30.00,South,179,0.0,0.0,75,0.00,,,0.00,Wunderground v.1.15,2013-05-10 20:30:00,
2013-05-10 16:40:00,72.6,64.2,30.00,South,179,0.0,0.0,75,0.00,,,0.00,Wunderground v.1.15,2013-05-10 20:40:00,
2013-05-10 16:49:00,72.2,64.2,30.00,South,179,0.0,0.0,76,0.00,,,0.00,Wunderground v.1.15,2013-05-10 20:49:00,
2013-05-10 16:55:00,72.1,64.9,30.00,South,179,0.0,0.0,78,0.00,,,0.00,Wunderground v.1.15,2013-05-10 20:55:00,
2013-05-10 17:00:00,72.0,64.8,30.00,South,179,0.0,0.0,78,0.00,,,0.00,Wunderground v.1.15,2013-05-10 21:00:00,
2013-05-10 17:10:00,72.0,65.1,30.00,South,179,0.0,0.0,79,0.00,,,0.00,Wunderground v.1.15,2013-05-10 21:10:00,
2013-05-10 17:15:00,72.0,66.6,30.00,South,179,0.0,0.0,83,0.00,,,0.00,Wunderground v.1.15,2013-05-10 21:15:00,
2013-05-10 17:20:00,71.9,67.5,30.00,South,179,0.0,0.0,86,0.00,,,0.00,Wunderground v.1.15,2013-05-10 21:20:00,
2013-05-10 17:30:00,71.8,67.0,30.00,South,179,0.0,0.0,85,0.00,,,0.00,Wunderground v.1.15,2013-05-10 21:30:00,
2013-05-10 17:40:00,71.8,66.0,30.00,South,179,0.0,0.0,82,0.00,,,0.00,Wunderground v.1.15,2013-05-10 21:40:00,
2013-05-10 17:49:00,71.8,67.4,30.00,WSW,254,0.0,0.0,86,0.00,,,0.00,Wunderground v.1.15,2013-05-10 21:49:00,
2013-05-10 17:55:00,71.7,66.6,30.00,WSW,254,0.0,0.0,84,0.00,,,0.00,Wunderground v.1.15,2013-05-10 21:55:00,
2013-05-10 18:00:00,71.7,67.3,29.97,WSW,254,0.0,0.0,86,0.00,,,0.00,Wunderground v.1.15,2013-05-10 22:00:00,
2013-05-10 18:05:00,71.7,66.9,29.97,WSW,254,0.0,0.0,85,0.00,,,0.00,Wunderground v.1.15,2013-05-10 22:05:00,
2013-05-10 18:10:00,71.9,65.8,29.97,WSW,254,0.0,0.0,81,0.00,,,0.00,Wunderground v.1.15,2013-05-10 22:10:00,
2013-05-10 18:20:00,72.0,64.4,29.97,WSW,254,0.0,0.0,77,0.00,,,0.00,Wunderground v.1.15,2013-05-10 22:20:00,
2013-05-10 18:25:00,72.0,65.5,29.97,WSW,254,0.0,0.0,80,0.00,,,0.00,Wunderground v.1.15,2013-05-10 22:25:00,
2013-05-10 18:30:00,72.0,65.8,29.97,WSW,254,0.0,0.0,81,0.00,,,0.00,Wunderground v.1.15,2013-05-10 22:30:00,
2013-05-10 18:40:00,71.9,66.1,29.97,WSW,254,0.0,0.0,82,0.00,,,0.00,Wunderground v.1.15,2013-05-10 22:40:00,
2013-05-10 18:49:00,71.6,66.8,29.96,WSW,254,0.0,0.0,85,0.00,,,0.00,Wunderground v.1.15,2013-05-10 22:49:00,
2013-05-10 18:55:00,71.4,67.3,29.96,WSW,254,0.0,0.0,87,0.00,,,0.00,Wunderground v.1.15,2013-05-10 22:55:00,
2013-05-10 19:05:00,70.8,67.4,29.97,WSW,254,0.0,0.0,89,0.00,,,0.00,Wunderground v.1.15,2013-05-10 23:05:00,
2013-05-10 19:10:00,70.5,66.8,29.97,WSW,254,0.0,0.0,88,0.00,,,0.00,Wunderground v.1.15,2013-05-10 23:10:00,
2013-05-10 19:19:00,70.1,67.0,29.97,WSW,253,0.0,0.0,90,0.00,,,0.00,Wunderground v.1.15,2013-05-10 23:19:00,
2013-05-10 19:25:00,69.9,66.5,29.97,WSW,254,0.0,0.0,89,0.00,,,0.00,Wunderground v.1.15,2013-05-10 23:25:00,
2013-05-10 19:35:00,69.6,66.2,29.96,WSW,254,0.0,0.0,89,0.00,,,0.00,Wunderground v.1.15,2013-05-10 23:35:00,
2013-05-10 19:44:00,69.3,67.2,29.96,WSW,254,0.0,0.0,93,0.00,,,0.00,Wunderground v.1.15,2013-05-10 23:44:00,
2013-05-10 19:49:00,69.2,67.1,29.96,WSW,254,0.0,0.0,93,0.00,,,0.00,Wunderground v.1.15,2013-05-10 23:49:00,
2013-05-10 19:59:00,68.8,67.0,29.96,WSW,254,0.0,0.0,94,0.00,,,0.00,Wunderground v.1.15,2013-05-10 23:59:00,
2013-05-10 20:05:00,68.4,66.3,29.97,WSW,254,0.0,0.0,93,0.00,,,0.00,Wunderground v.1.15,2013-05-11 00:05:00,
2013-05-10 20:10:00,68.3,66.2,29.97,WSW,254,0.0,0.0,93,0.00,,,0.00,Wunderground v.1.15,2013-05-11 00:10:00,
2013-05-10 20:19:00,68.0,66.2,29.97,WSW,253,0.0,0.0,94,0.00,,,0.00,Wunderground v.1.15,2013-05-11 00:19:00,
2013-05-10 20:25:00,67.8,66.3,29.97,WSW,254,0.0,0.0,95,0.00,,,0.00,Wunderground v.1.15,2013-05-11 00:25:00,
2013-05-10 20:30:00,67.6,66.4,29.97,WSW,254,0.0,0.0,96,0.00,,,0.00,Wunderground v.1.15,2013-05-11 00:30:00,
2013-05-10 20:40:00,67.2,65.7,29.97,WSW,253,0.0,0.0,95,0.00,,,0.00,Wunderground v.1.15,2013-05-11 00:40:00,
2013-05-10 20:50:00,67.0,65.2,29.98,WSW,253,0.0,0.0,94,0.00,,,0.00,Wunderground v.1.15,2013-05-11 00:50:00,
2013-05-10 21:00:00,66.8,65.0,29.99,WSW,254,0.0,0.0,94,0.00,,,0.00,Wunderground v.1.15,2013-05-11 01:00:00,
2013-05-10 21:10:00,66.6,64.8,29.99,WSW,253,0.0,0.0,94,0.00,,,0.00,Wunderground v.1.15,2013-05-11 01:10:00,
2013-05-10 21:20:00,66.5,64.7,29.98,WSW,253,0.0,0.0,94,0.00,,,0.00,Wunderground v.1.15,2013-05-11 01:20:00,
2013-05-10 21:29:00,66.3,64.8,29.98,WSW,253,0.0,0.0,95,0.00,,,0.00,Wunderground v.1.15,2013-05-11 01:29:00,
2013-05-10 21:35:00,66.3,65.1,29.98,WSW,254,0.0,0.0,96,0.00,,,0.00,Wunderground v.1.15,2013-05-11 01:35:00,
2013-05-10 21:45:00,66.1,64.9,29.99,WSW,254,0.0,0.0,96,0.00,,,0.00,Wunderground v.1.15,2013-05-11 01:45:00,
2013-05-10 21:50:00,65.9,64.7,29.99,WSW,254,0.0,0.0,96,0.00,,,0.00,Wunderground v.1.15,2013-05-11 01:50:00,
2013-05-10 22:00:00,65.7,64.8,29.99,WSW,254,0.0,0.0,97,0.00,,,0.00,Wunderground v.1.15,2013-05-11 02:00:00,
2013-05-10 22:09:00,65.4,63.9,29.99,WSW,253,0.0,0.0,95,0.00,,,0.00,Wunderground v.1.15,2013-05-11 02:09:00,
2013-05-10 22:15:00,65.3,63.2,29.99,WSW,254,0.0,0.0,93,0.00,,,0.00,Wunderground v.1.15,2013-05-11 02:15:00,
2013-05-10 22:25:00,65.2,63.1,29.99,WSW,254,0.0,0.0,93,0.00,,,0.00,Wunderground v.1.15,2013-05-11 02:25:00,
2013-05-10 22:30:00,65.1,63.0,29.99,WSW,254,0.0,0.0,93,0.00,,,0.00,Wunderground v.1.15,2013-05-11 02:30:00,
2013-05-10 22:39:00,65.0,63.5,29.99,WSW,254,0.0,0.0,95,0.00,,,0.00,Wunderground v.1.15,2013-05-11 02:39:00,
2013-05-10 22:45:00,65.0,63.8,29.99,WSW,254,0.0,0.0,96,0.00,,,0.00,Wunderground v.1.15,2013-05-11 02:45:00,
2013-05-10 22:55:00,65.0,64.1,29.99,WSW,254,0.0,0.0,97,0.00,,,0.00,Wunderground v.1.15,2013-05-11 02:55:00,
2013-05-10 23:04:00,64.8,64.2,29.98,WSW,253,0.0,0.0,98,0.00,,,0.01,Wunderground v.1.15,2013-05-11 03:04:00,
2013-05-10 23:10:00,64.8,64.2,29.98,WSW,254,0.0,0.0,98,0.00,,,0.01,Wunderground v.1.15,2013-05-11 03:10:00,
2013-05-10 23:19:00,64.6,64.0,29.98,WSW,254,0.0,0.0,98,0.00,,,0.01,Wunderground v.1.15,2013-05-11 03:19:00,
2013-05-10 23:25:00,64.5,64.2,29.98,WSW,254,0.0,0.0,99,0.00,,,0.01,Wunderground v.1.15,2013-05-11 03:25:00,
2013-05-10 23:30:00,64.5,64.2,29.99,WSW,254,0.0,0.0,99,0.00,,,0.01,Wunderground v.1.15,2013-05-11 03:30:00,
2013-05-10 23:40:00,64.4,63.8,29.99,WSW,253,0.0,0.0,98,0.00,,,0.01,Wunderground v.1.15,2013-05-11 03:40:00,
2013-05-10 23:49:00,64.2,63.3,29.99,WSW,254,0.0,0.0,97,0.00,,,0.01,Wunderground v.1.15,2013-05-11 03:49:00,
2013-05-10 23:55:00,64.1,63.2,29.99,WSW,253,0.0,0.0,97,0.00,,,0.01,Wunderground v.1.15,2013-05-11 03:55:00,